createdAt,value
2018-05-29T08:41:26.728Z,28.50
2018-05-29T08:43:54.179Z,28.50
2018-05-29T08:46:22.648Z,27.80
2018-05-29T08:48:50.098Z,29.00
2018-05-29T08:51:17.590Z,29.70
2018-05-29T08:53:45.038Z,29.40
2018-05-29T08:56:12.512Z,30.60
2018-05-29T08:58:39.979Z,30.50
2018-05-29T09:01:08.346Z,29.60
2018-05-29T09:03:35.800Z,29.40
2018-05-29T09:06:03.262Z,29.10
2018-05-29T09:08:30.725Z,28.80
2018-05-29T09:10:58.173Z,28.80
2018-05-29T09:13:25.641Z,29.00
2018-05-29T09:15:53.082Z,28.50
2018-05-29T09:18:20.545Z,29.40
2018-05-29T09:20:48.009Z,30.00
2018-05-29T09:23:15.509Z,31.10
2018-05-29T09:25:43.724Z,29.40
2018-05-29T09:28:11.183Z,29.40
2018-05-29T09:30:38.627Z,28.30
2018-05-29T09:33:06.093Z,29.00
2018-05-29T09:35:33.556Z,28.90
2018-05-29T09:38:00.992Z,27.70
2018-05-29T09:40:28.436Z,27.60
2018-05-29T09:42:55.886Z,27.50
2018-05-29T09:45:23.339Z,26.70
2018-05-29T09:47:51.570Z,25.80
2018-05-29T09:50:19.013Z,25.70
2018-05-29T09:52:46.470Z,26.00
2018-05-29T09:55:13.913Z,25.70
2018-05-29T09:57:41.368Z,25.90
2018-05-29T10:00:08.816Z,25.80
2018-05-29T10:02:36.274Z,25.90
2018-05-29T10:05:03.720Z,26.30
2018-05-29T10:07:31.215Z,26.50
2018-05-29T10:09:58.773Z,26.00
2018-05-29T10:12:26.089Z,26.20
2018-05-29T10:14:53.536Z,26.70
2018-05-29T10:17:22.681Z,27.60
2018-05-29T10:19:50.948Z,27.70
2018-05-29T10:22:18.407Z,27.70
2018-05-29T10:24:45.857Z,27.60
2018-05-29T10:27:13.312Z,27.80
2018-05-29T10:29:40.754Z,27.60
2018-05-29T10:32:08.219Z,27.50
2018-05-29T10:34:35.667Z,27.60
2018-05-29T10:37:03.124Z,27.00
2018-05-29T10:39:30.564Z,26.20
2018-05-29T10:41:58.805Z,26.00
2018-05-29T10:44:26.252Z,26.00
2018-05-29T10:46:53.707Z,25.90
2018-05-29T10:49:21.153Z,26.10
2018-05-29T10:51:48.616Z,26.20
2018-05-29T10:54:16.834Z,26.90
2018-05-29T10:56:45.057Z,27.10
2018-05-29T10:59:12.520Z,27.10
2018-05-29T11:01:39.954Z,27.80
2018-05-29T11:04:07.400Z,28.60
2018-05-29T11:06:34.848Z,29.70
2018-05-29T11:09:02.326Z,30.30
2018-05-29T11:11:29.769Z,30.60
2018-05-29T11:13:57.245Z,30.50
2018-05-29T11:16:24.700Z,31.20
2018-05-29T11:18:52.924Z,30.90
2018-05-29T11:21:27.344Z,31.00
2018-05-29T11:23:54.805Z,31.70
2018-05-29T11:26:22.267Z,33.30
2018-05-29T11:28:49.725Z,32.70
2018-05-29T11:31:17.986Z,32.70
2018-05-29T11:33:45.404Z,32.70
2018-05-29T11:36:12.856Z,32.30
2018-05-29T11:38:40.381Z,33.70
2018-05-29T11:41:07.842Z,33.60
2018-05-29T11:43:36.091Z,32.40
2018-05-29T11:46:03.535Z,32.40
2018-05-29T11:48:31.010Z,31.60
2018-05-29T11:50:58.502Z,31.20
2018-05-29T11:53:25.957Z,30.40
2018-05-29T11:55:53.404Z,29.10
2018-05-29T11:58:21.631Z,28.20
2018-05-29T12:00:49.088Z,28.20
2018-05-29T12:03:16.567Z,28.70
2018-05-29T12:05:44.018Z,28.70
2018-05-29T12:08:11.485Z,29.10
2018-05-29T12:10:38.928Z,29.70
2018-05-29T12:13:06.389Z,31.10
2018-05-29T12:15:33.837Z,31.90
2018-05-29T12:18:01.300Z,31.40
2018-05-29T12:20:28.760Z,31.40
2018-05-29T12:22:56.229Z,31.10
2018-05-29T12:25:23.674Z,30.20
2018-05-29T12:27:51.226Z,30.30
2018-05-29T12:30:18.668Z,28.10
2018-05-29T12:32:46.128Z,28.80
2018-05-29T12:35:13.581Z,29.40
2018-05-29T12:37:41.046Z,29.50
2018-05-29T12:40:08.493Z,29.40
2018-05-29T12:42:35.951Z,29.40
2018-05-29T12:45:03.428Z,29.40
2018-05-29T12:47:30.896Z,29.00
2018-05-29T12:49:58.351Z,29.50
2018-05-29T12:52:25.801Z,29.20
2018-05-29T12:54:53.261Z,29.30
2018-05-29T12:57:20.729Z,29.30
2018-05-29T12:59:49.083Z,28.80
2018-05-29T13:02:16.536Z,28.80
2018-05-29T13:04:44.002Z,28.80
2018-05-29T13:07:11.444Z,28.80
2018-05-29T13:09:38.897Z,28.90
2018-05-29T13:12:06.354Z,28.80
2018-05-29T13:14:33.803Z,28.70
2018-05-29T13:17:01.251Z,28.60
2018-05-29T13:19:28.709Z,28.40
2018-05-29T13:21:56.156Z,28.10
2018-05-29T13:24:23.624Z,27.90
2018-05-29T13:26:51.084Z,27.90
2018-05-29T13:29:18.548Z,28.00
2018-05-29T13:31:45.991Z,28.00
2018-05-29T13:34:13.457Z,27.50
2018-05-29T13:36:40.905Z,27.50
2018-05-29T13:39:08.384Z,27.60
2018-05-29T13:41:35.964Z,27.50
2018-05-29T13:44:03.421Z,27.40
2018-05-29T13:46:30.866Z,27.60
2018-05-29T13:48:58.316Z,27.90
2018-05-29T13:51:26.676Z,28.40
2018-05-29T13:53:54.909Z,29.80
2018-05-29T13:56:22.370Z,29.70
2018-05-29T13:58:50.605Z,30.80
2018-05-29T14:01:18.050Z,30.70
2018-05-29T14:03:45.524Z,32.30
2018-05-29T14:06:12.968Z,32.20
2018-05-29T14:08:40.442Z,30.50
2018-05-29T14:11:07.885Z,32.00
2018-05-29T14:13:35.344Z,32.90
2018-05-29T14:16:04.728Z,33.10
2018-05-29T14:18:32.184Z,33.50
2018-05-29T14:21:00.308Z,32.80
2018-05-29T14:23:28.118Z,34.30
2018-05-29T14:25:55.615Z,33.20
2018-05-29T14:28:23.164Z,32.80
2018-05-29T14:30:50.631Z,33.70
2018-05-29T14:33:18.110Z,33.40
2018-05-29T14:35:46.479Z,34.00
2018-05-29T14:38:14.826Z,34.70
2018-05-29T14:40:42.288Z,34.70
2018-05-29T15:50:17.723Z,30.10
2018-05-29T15:52:46.283Z,29.50
2018-05-29T15:55:14.536Z,29.30
2018-05-29T15:57:42.013Z,29.20
2018-05-29T16:00:09.470Z,29.30
2018-05-29T16:02:36.927Z,29.20
2018-05-29T16:05:04.422Z,29.20
2018-05-29T16:07:31.872Z,29.20
2018-05-29T16:10:00.104Z,29.10
2018-05-29T16:12:27.562Z,29.10
2018-05-29T16:14:55.021Z,28.70
2018-05-29T16:17:22.477Z,28.80
2018-05-29T16:19:50.578Z,29.00
2018-05-29T16:22:18.811Z,28.70
2018-05-29T16:24:46.285Z,28.60
2018-05-29T16:27:13.743Z,28.20
2018-05-29T16:29:41.209Z,28.30
2018-05-29T16:32:08.683Z,28.00
2018-05-29T16:34:36.904Z,27.60
2018-05-29T16:37:04.364Z,27.50
2018-05-29T16:39:31.813Z,27.50
2018-05-29T16:41:59.284Z,27.30
2018-05-29T16:44:26.742Z,27.20
2018-05-29T16:46:54.216Z,27.20
2018-05-29T16:49:21.668Z,27.00
2018-05-29T16:51:49.147Z,26.90
2018-05-29T16:54:16.602Z,26.90
2018-05-29T16:56:44.060Z,26.90
2018-05-29T16:59:11.513Z,26.90
2018-05-29T17:01:38.990Z,26.70
2018-05-29T17:04:07.286Z,26.50
2018-05-29T17:06:35.513Z,26.40
2018-05-29T17:09:02.972Z,26.30
2018-05-29T17:11:30.434Z,26.30
2018-05-29T17:13:57.897Z,26.30
2018-05-29T17:16:25.352Z,26.30
2018-05-29T17:18:52.806Z,26.30
2018-05-29T17:21:20.257Z,26.30
2018-05-29T17:23:47.914Z,26.30
2018-05-29T17:26:15.390Z,26.10
2018-05-29T17:28:42.848Z,25.90
2018-05-29T17:31:10.314Z,25.90
2018-05-29T17:33:38.540Z,25.80
2018-05-29T17:36:06.842Z,25.80
2018-05-29T17:38:35.121Z,25.70
2018-05-29T17:41:04.063Z,25.70
2018-05-29T17:43:31.796Z,25.60
2018-05-29T17:46:01.055Z,25.60
2018-05-29T17:48:28.752Z,25.50
2018-05-29T17:50:57.585Z,25.40
2018-05-29T17:53:28.829Z,25.40
2018-05-29T17:55:58.206Z,25.50
2018-05-29T17:58:27.043Z,25.40
2018-05-29T18:00:56.401Z,25.40
2018-05-29T18:03:24.298Z,25.30
2018-05-29T18:05:51.793Z,25.30
2018-05-29T18:08:19.313Z,25.20
2018-05-29T18:10:46.854Z,25.10
2018-05-29T18:13:15.549Z,25.10
2018-05-29T18:15:44.079Z,24.90
2018-05-29T18:18:12.613Z,24.70
2018-05-29T18:20:40.154Z,24.70
2018-05-29T18:23:07.698Z,24.60
2018-05-29T18:25:35.948Z,24.40
2018-05-29T18:28:03.584Z,24.40
2018-05-29T18:30:31.039Z,24.30
2018-05-29T18:32:59.295Z,24.20
2018-05-29T18:35:26.768Z,24.20
2018-05-29T18:37:54.255Z,24.10
2018-05-29T18:40:22.421Z,24.10
2018-05-29T18:42:50.088Z,24.10
2018-05-29T18:45:17.567Z,24.10
2018-05-29T18:47:45.030Z,24.10
2018-05-29T18:50:13.359Z,23.90
2018-05-29T18:52:40.779Z,23.90
2018-05-29T18:55:09.321Z,23.80
2018-05-29T18:57:37.622Z,23.60
2018-05-29T19:00:05.073Z,23.60
2018-05-29T19:02:32.541Z,23.50
2018-05-29T19:05:00.769Z,23.30
2018-05-29T19:07:28.269Z,23.20
2018-05-29T19:09:55.774Z,23.10
2018-05-29T19:12:23.177Z,23.00
2018-05-29T19:14:50.682Z,22.90
2018-05-29T19:17:18.155Z,22.80
2018-05-29T19:19:45.632Z,22.80
2018-05-29T19:22:13.106Z,22.70
2018-05-29T19:24:40.569Z,22.50
2018-05-29T19:27:08.038Z,22.50
2018-05-29T19:29:36.294Z,22.40
2018-05-29T19:32:03.765Z,22.40
2018-05-29T19:34:31.997Z,22.30
2018-05-29T19:36:59.464Z,22.30
2018-05-29T19:39:26.929Z,22.30
2018-05-29T19:41:54.624Z,22.10
2018-05-29T19:44:22.844Z,22.00
2018-05-29T19:46:50.341Z,22.00
2018-05-29T19:49:17.828Z,22.00
2018-05-29T19:51:45.437Z,21.90
2018-05-29T19:54:12.916Z,21.90
2018-05-29T19:56:40.548Z,21.80
2018-05-29T19:59:08.008Z,21.80
2018-05-29T20:01:35.489Z,21.70
2018-05-29T20:04:02.954Z,21.60
2018-05-29T20:06:30.399Z,21.70
2018-05-29T20:08:57.861Z,21.70
2018-05-29T20:11:25.313Z,21.60
2018-05-29T20:13:52.782Z,21.60
2018-05-29T20:16:20.995Z,21.40
2018-05-29T20:18:48.442Z,21.30
2018-05-29T20:21:15.884Z,21.40
2018-05-29T20:23:44.104Z,21.30
2018-05-29T20:26:11.549Z,21.30
2018-05-29T20:28:38.988Z,21.30
2018-05-29T20:31:06.433Z,21.20
2018-05-29T20:33:34.647Z,21.20
2018-05-29T20:36:02.088Z,21.10
2018-05-29T20:38:29.527Z,21.10
2018-05-29T20:40:56.967Z,21.10
2018-05-29T20:43:25.190Z,21.10
2018-05-29T20:45:52.630Z,21.10
2018-05-29T20:48:20.086Z,21.00
2018-05-29T20:50:47.518Z,21.00
2018-05-29T20:53:14.976Z,21.00
2018-05-29T20:55:43.191Z,20.90
2018-05-29T20:58:10.630Z,20.90
2018-05-29T21:00:38.094Z,20.90
2018-05-29T21:03:05.549Z,20.80
2018-05-29T21:05:33.013Z,20.80
2018-05-29T21:08:00.439Z,20.60
2018-05-29T21:10:27.891Z,20.60
2018-05-29T21:12:56.094Z,20.30
2018-05-29T21:15:23.550Z,20.30
2018-05-29T21:17:50.991Z,20.30
2018-05-29T21:20:18.445Z,20.10
2018-05-29T21:22:45.884Z,20.10
2018-05-29T21:25:14.103Z,19.90
2018-05-29T21:27:41.548Z,19.80
